Flight Track Log - Related Links

Times and Time Zones

All times are in EDT time to prevent confusion due to time zone crossing. See the ASQ5806 flight status page for this flight to view local times or setup timezone preferences in your user account.

Time Position Orientation Groundspeed Altitude Reporting Facility
EDT Latitude Longitude Course Direction KTS MPH feet Rate Location/Type
Sat 12:21:00 AM 29.9617 -95.3436 270° West 135 155 1,100  Level Houston Center
Sat 12:21:22 AM 29.9556 -95.3436 180° South 124 143 1,500 1,518 Climbing Houston Center
Sat 12:22:23 AM 29.9275 -95.3942 237° Southwest 210 242 3,200 2,479 Climbing Houston Center
Sat 12:23:00 AM 29.8545 -95.7200 249° West  Level FlightAware Approximate
Sat 12:23:23 AM 29.9106 -95.4892 258° West 251 289 6,500  Level Houston Center
Sat 12:24:00 AM 29.8098 -95.8481 247° West  Level FlightAware Approximate
Sat 12:24:23 AM 29.8947 -95.5703 257° West 258 297 9,200  Level Houston Center
Sat 12:25:00 AM 29.7667 -95.9762 270° West  Level FlightAware Approximate
Sat 12:25:24 AM 29.8783 -95.6592 258° West 281 323 10,500  Level Houston Center
Sat 12:26:00 AM 29.7667 -96.1142 270° West  Level FlightAware Approximate
Sat 12:26:24 AM 29.8597 -95.7642 258° West 331 381 12,400  Level Houston Center
Sat 12:27:24 AM 29.8392 -95.8700 257° West 337 388 13,800 1,438 Climbing Houston Center
Sat 12:28:25 AM 29.8172 -95.9836 257° West 359 413 15,300 1,587 Climbing Houston Center
Sat 12:29:25 AM 29.8006 -96.0900 260° West 364 419 17,000 1,850 Climbing Houston Center
Sat 12:30:25 AM 29.7928 -96.2067 266° West 367 422 19,000 2,033 Climbing Houston Center
Sat 12:31:26 AM 29.7850 -96.3200 266° West 362 417 21,100 1,488 Climbing Houston Center
Sat 12:32:26 AM 29.7756 -96.4319 264° West 353 406 22,000 450 Climbing Houston Center
Sat 12:33:26 AM 29.7672 -96.5569 266° West 388 447 22,000  Level Houston Center
Sat 12:34:27 AM 29.7558 -96.6872 264° West 408 470 22,000  Level Houston Center
Sat 12:35:27 AM 29.7442 -96.8453 265° West 415 478 22,000  Level Houston Center
Sat 12:36:27 AM 29.7336 -96.9778 265° West 417 480 22,000  Level Houston Center
Sat 12:37:28 AM 29.7222 -97.1114 264° West 421 484 22,000 -446 Level Houston Center
Sat 12:38:28 AM 29.7111 -97.2428 264° West 421 484 21,100 -1,300 Descending Houston Center
Sat 12:39:28 AM 29.7008 -97.3681 265° West 403 464 19,400 -1,875 Descending Houston Center
Sat 12:40:20 AM 29.6911 -97.4789 264° West 387 445 17,600 -2,089 Descending Houston Center
Sat 12:41:20 AM 29.6800 -97.6006 264° West 379 436 15,500 -2,033 Descending Houston Center
Sat 12:42:21 AM 29.6706 -97.7172 265° West 371 427 13,500 -1,230 Descending Houston Center
Sat 12:43:22 AM 29.6681 -97.8233 268° West 329 379 13,000 -1,240 Descending Houston Center
Sat 12:44:22 AM 29.6733 -97.9214 274° West 295 339 11,000 -1,835 Descending Houston Center
Sat 12:45:23 AM 29.6808 -98.0214 275° West 292 336 9,300 -1,686 Descending Houston Center
Sat 12:46:23 AM 29.6869 -98.1075 275° West 270 311 7,600 -1,417 Descending Houston Center
Sat 12:47:30 AM 29.6942 -98.1997 275° West 273 314 6,300 -1,279 Descending Houston Center
Sat 12:48:25 AM 29.6967 -98.2794 272° West 268 308 5,000 -1,461 Descending Houston Center
Sat 12:49:25 AM 29.6558 -98.3372 231° Southwest 231 266 3,500 -1,143 Descending Houston Center
Sat 12:50:31 AM 29.6122 -98.3822 222° Southwest 176 203 2,600 -709 Descending Houston Center
Sat 12:51:32 AM 29.5847 -98.4083 220° Southwest 115 132 2,000 -645 Descending Houston Center
Sat 12:52:32 AM 29.5564 -98.4369 221° Southwest 133 153 1,300 -600 Descending Houston Center
Sat 12:53:32 AM 29.5300 -98.4631 221° Southwest 136 157 800 -500 Descending Houston Center

Login

Don't have an account? Register now (free) for customized features, flight alerts, and more!